createdAt,value
2023-01-30T00:01:20.495Z,70.38
2023-01-30T00:03:47.504Z,70.41
2023-01-30T00:06:14.776Z,70.87
2023-01-30T00:08:41.655Z,70.71
2023-01-30T00:11:12.341Z,70.46
2023-01-30T00:13:40.549Z,70.35
2023-01-30T00:16:09.771Z,70.49
2023-01-30T00:18:38.045Z,70.25
2023-01-30T00:21:07.853Z,70.84
2023-01-30T00:23:36.242Z,71.01
2023-01-30T00:26:04.742Z,71.37
2023-01-30T00:28:32.087Z,71.30
2023-01-30T00:30:58.927Z,70.95
2023-01-30T00:33:27.156Z,70.59
2023-01-30T00:35:56.385Z,70.52
2023-01-30T00:38:24.612Z,70.24
2023-01-30T00:40:51.788Z,70.47
2023-01-30T00:43:39.561Z,69.96
2023-01-30T00:46:35.628Z,70.27
2023-01-30T00:49:02.485Z,70.11
2023-01-30T00:51:29.325Z,70.25
2023-01-30T00:53:56.218Z,70.10
2023-01-30T00:56:23.050Z,69.93
2023-01-30T00:58:49.899Z,69.87
2023-01-30T01:01:16.813Z,70.48
2023-01-30T01:03:43.791Z,70.28
2023-01-30T01:06:10.903Z,70.37
2023-01-30T01:08:37.761Z,70.37
2023-01-30T01:11:04.740Z,70.24
2023-01-30T01:13:31.684Z,70.25
2023-01-30T01:15:58.579Z,70.35
2023-01-30T01:18:25.467Z,70.14
2023-01-30T01:20:52.346Z,70.29
2023-01-30T01:23:19.138Z,69.86
2023-01-30T01:25:45.959Z,70.06
2023-01-30T01:28:12.787Z,70.06
2023-01-30T01:30:39.640Z,70.22
2023-01-30T01:33:06.487Z,70.29
2023-01-30T01:35:33.305Z,70.25
2023-01-30T01:38:00.187Z,70.16
2023-01-30T01:40:45.417Z,70.10
2023-01-30T01:43:24.735Z,70.17
2023-01-30T01:46:21.115Z,70.32
2023-01-30T01:48:55.005Z,70.69
2023-01-30T01:51:39.044Z,71.90
2023-01-30T01:54:23.941Z,71.06
2023-01-30T01:56:51.500Z,70.82
2023-01-30T01:59:33.443Z,72.09
2023-01-30T02:02:13.058Z,71.45
2023-01-30T02:05:06.483Z,71.33
2023-01-30T02:07:47.170Z,71.18
2023-01-30T02:10:22.786Z,71.11
2023-01-30T02:12:51.818Z,70.99
2023-01-30T02:15:20.219Z,71.06
2023-01-30T02:17:47.400Z,71.13
2023-01-30T02:20:43.059Z,71.19
2023-01-30T02:23:18.714Z,71.53
2023-01-30T02:26:24.591Z,72.59
2023-01-30T02:29:35.073Z,71.42
2023-01-30T02:32:16.408Z,72.02
2023-01-30T02:35:15.136Z,71.32
2023-01-30T02:37:52.261Z,71.42
2023-01-30T02:41:08.177Z,71.59
2023-01-30T02:44:26.123Z,70.87
2023-01-30T02:47:04.333Z,70.79
2023-01-30T02:49:52.878Z,70.57
2023-01-30T02:52:21.793Z,70.56
2023-01-30T02:54:48.649Z,70.45
2023-01-30T02:57:24.881Z,70.88
2023-01-30T03:00:01.245Z,71.07
2023-01-30T03:02:52.494Z,71.32
2023-01-30T03:05:58.357Z,71.23
2023-01-30T03:08:37.149Z,71.22
2023-01-30T03:11:09.594Z,71.38
2023-01-30T03:13:45.959Z,71.09
2023-01-30T03:16:26.824Z,70.83
2023-01-30T03:18:53.918Z,70.98
2023-01-30T03:21:20.751Z,71.22
2023-01-30T03:23:47.795Z,71.46
2023-01-30T03:26:20.918Z,71.25
2023-01-30T03:28:50.525Z,71.33
2023-01-30T03:31:17.605Z,70.98
2023-01-30T03:33:44.667Z,71.11
2023-01-30T03:36:11.869Z,71.61
2023-01-30T03:38:38.797Z,71.05
2023-01-30T03:41:05.862Z,71.03
2023-01-30T03:43:32.811Z,71.63
2023-01-30T03:45:59.744Z,71.37
2023-01-30T03:48:26.603Z,70.89
2023-01-30T03:50:53.462Z,71.23
2023-01-30T03:53:20.299Z,70.90
2023-01-30T03:55:47.282Z,70.97
2023-01-30T03:58:14.064Z,70.62
2023-01-30T04:00:40.976Z,71.22
2023-01-30T04:03:07.904Z,70.62
2023-01-30T04:05:34.748Z,70.53
2023-01-30T04:08:01.620Z,70.55
2023-01-30T04:10:28.457Z,70.81
2023-01-30T04:12:55.381Z,70.77
2023-01-30T04:15:22.289Z,71.74
2023-01-30T04:17:49.098Z,71.83
2023-01-30T04:20:16.537Z,71.42
2023-01-30T04:22:43.331Z,70.73
2023-01-30T04:25:10.281Z,70.53
2023-01-30T04:27:37.245Z,70.84
2023-01-30T04:30:05.104Z,70.57
2023-01-30T04:32:31.954Z,70.19
2023-01-30T04:34:58.799Z,70.55
2023-01-30T04:37:25.638Z,71.56
2023-01-30T04:39:52.460Z,70.71
2023-01-30T04:42:19.295Z,70.00
2023-01-30T04:44:46.213Z,71.00
2023-01-30T04:47:13.037Z,70.89
2023-01-30T04:49:39.915Z,70.48
2023-01-30T04:52:06.788Z,71.47
2023-01-30T04:54:34.045Z,71.67
2023-01-30T04:57:00.963Z,71.14
2023-01-30T04:59:27.771Z,70.40
2023-01-30T05:01:55.318Z,70.65
2023-01-30T05:04:22.223Z,71.06
2023-01-30T05:06:49.074Z,71.42
2023-01-30T05:09:15.937Z,71.18
2023-01-30T05:11:42.980Z,70.78
2023-01-30T05:14:09.806Z,71.62
2023-01-30T05:16:36.613Z,71.27
2023-01-30T05:19:03.453Z,71.81
2023-01-30T05:21:30.308Z,71.24
2023-01-30T05:23:57.871Z,71.11
2023-01-30T05:26:25.303Z,70.71
2023-01-30T05:28:57.463Z,70.92
2023-01-30T05:31:24.666Z,71.59
2023-01-30T05:33:52.482Z,71.04
2023-01-30T05:36:22.343Z,70.71
2023-01-30T05:38:49.201Z,70.53
2023-01-30T05:41:17.358Z,70.80
2023-01-30T05:43:44.848Z,70.72
2023-01-30T05:46:13.499Z,70.96
2023-01-30T05:48:40.415Z,70.20
2023-01-30T05:51:07.340Z,70.53
2023-01-30T05:53:35.075Z,69.94
2023-01-30T05:56:06.167Z,70.34
2023-01-30T05:58:33.676Z,70.35
2023-01-30T06:01:02.588Z,70.43
2023-01-30T06:03:31.230Z,70.15
2023-01-30T06:05:58.465Z,69.87
2023-01-30T06:08:25.431Z,70.01
2023-01-30T06:10:52.488Z,69.86
2023-01-30T06:13:19.520Z,69.81
2023-01-30T06:15:46.812Z,69.34
2023-01-30T06:18:13.639Z,69.22
2023-01-30T06:20:40.544Z,68.22
2023-01-30T06:23:07.343Z,69.48
2023-01-30T06:25:34.229Z,68.94
2023-01-30T06:28:01.056Z,68.53
2023-01-30T06:30:27.948Z,69.01
2023-01-30T06:32:54.783Z,68.72
2023-01-30T06:35:21.658Z,67.87
2023-01-30T06:37:48.468Z,67.74
2023-01-30T06:40:15.381Z,68.54
2023-01-30T06:42:49.641Z,68.16
2023-01-30T06:45:19.497Z,67.89
2023-01-30T06:47:51.786Z,68.15
2023-01-30T06:50:21.958Z,67.41
2023-01-30T06:52:50.786Z,67.63
2023-01-30T06:55:23.662Z,66.96
2023-01-30T06:58:01.344Z,66.94
2023-01-30T07:00:28.178Z,67.43
2023-01-30T07:02:54.996Z,66.83
2023-01-30T07:05:21.838Z,66.32
2023-01-30T07:07:48.677Z,66.67
2023-01-30T07:10:15.853Z,66.33
2023-01-30T07:12:42.691Z,66.56
2023-01-30T07:15:09.990Z,66.62
2023-01-30T07:17:36.859Z,66.50
2023-01-30T07:20:04.032Z,65.74
2023-01-30T07:22:30.888Z,65.52
2023-01-30T07:24:57.671Z,64.87
2023-01-30T07:27:24.560Z,65.02
2023-01-30T07:29:52.505Z,64.68
2023-01-30T07:32:20.021Z,64.74
2023-01-30T07:34:47.770Z,64.29
2023-01-30T07:37:14.872Z,63.87
2023-01-30T07:39:42.051Z,63.74
2023-01-30T07:42:08.894Z,63.97
2023-01-30T07:44:35.805Z,64.01
2023-01-30T07:47:02.715Z,63.28
2023-01-30T07:49:29.663Z,63.92
2023-01-30T07:51:56.488Z,63.33
2023-01-30T07:54:23.405Z,63.59
2023-01-30T07:56:50.272Z,63.01
2023-01-30T07:59:17.153Z,63.13
2023-01-30T08:01:43.964Z,62.89
2023-01-30T08:04:11.455Z,62.42
2023-01-30T08:06:39.579Z,61.96
2023-01-30T08:09:07.323Z,62.29
2023-01-30T08:11:34.876Z,62.25
2023-01-30T08:14:02.196Z,62.58
2023-01-30T08:16:32.018Z,62.57
2023-01-30T08:18:59.132Z,61.97
2023-01-30T08:21:26.301Z,61.54
2023-01-30T08:23:53.199Z,61.42
2023-01-30T08:26:20.567Z,59.47
2023-01-30T08:28:47.496Z,57.97
2023-01-30T08:31:16.140Z,57.53
2023-01-30T08:33:43.389Z,58.57
2023-01-30T08:36:10.614Z,59.29
2023-01-30T08:38:37.507Z,58.71
2023-01-30T08:41:08.284Z,60.16
2023-01-30T08:43:35.810Z,59.60
2023-01-30T08:46:03.256Z,59.24
2023-01-30T08:48:40.030Z,58.42
2023-01-30T08:51:14.726Z,59.20
2023-01-30T08:53:41.721Z,57.61
2023-01-30T08:56:08.642Z,55.43
2023-01-30T08:58:35.502Z,54.56
2023-01-30T09:01:07.004Z,52.82
2023-01-30T09:03:33.844Z,50.73
2023-01-30T09:06:00.745Z,51.32
2023-01-30T09:08:27.594Z,50.68
2023-01-30T09:11:02.998Z,51.69
2023-01-30T09:13:30.989Z,50.49
2023-01-30T09:15:58.761Z,48.90
2023-01-30T09:18:26.203Z,52.21
2023-01-30T09:20:53.874Z,53.73
2023-01-30T09:23:21.017Z,53.89
2023-01-30T09:25:47.960Z,53.88
2023-01-30T09:28:14.912Z,54.16
2023-01-30T09:30:41.954Z,53.73
2023-01-30T09:33:08.844Z,54.44
2023-01-30T09:35:35.727Z,53.87
2023-01-30T09:38:04.218Z,54.11
2023-01-30T09:40:33.322Z,53.97
2023-01-30T09:43:22.714Z,53.41
2023-01-30T09:46:35.121Z,52.96
2023-01-30T09:49:29.915Z,53.01
2023-01-30T09:52:46.574Z,53.78
2023-01-30T09:55:20.999Z,52.21
2023-01-30T09:57:49.674Z,51.80
2023-01-30T10:00:39.427Z,50.57
2023-01-30T10:03:08.879Z,48.61
2023-01-30T10:05:45.070Z,46.59
2023-01-30T10:08:38.949Z,46.04
2023-01-30T10:11:42.518Z,47.52
2023-01-30T10:14:49.720Z,48.43
2023-01-30T10:17:46.766Z,47.54
2023-01-30T10:20:33.080Z,48.63
2023-01-30T10:23:21.334Z,49.48
2023-01-30T10:25:55.083Z,48.09
2023-01-30T10:28:37.734Z,47.18
2023-01-30T10:31:11.468Z,47.39
2023-01-30T10:34:04.569Z,48.05
2023-01-30T10:36:58.030Z,49.77
2023-01-30T10:39:54.943Z,49.22
2023-01-30T10:42:38.882Z,47.17
2023-01-30T10:45:20.509Z,47.58
2023-01-30T10:48:10.532Z,46.78
2023-01-30T10:50:58.685Z,45.99
2023-01-30T10:54:02.916Z,48.26
2023-01-30T10:57:13.324Z,46.01
2023-01-30T10:59:55.321Z,47.07
2023-01-30T11:02:30.762Z,45.33
2023-01-30T11:05:03.655Z,47.49
2023-01-30T11:07:33.482Z,47.66
2023-01-30T11:10:00.778Z,48.75
2023-01-30T11:12:27.707Z,49.67
2023-01-30T11:15:00.321Z,49.09
2023-01-30T11:17:45.100Z,49.66
2023-01-30T11:20:17.807Z,50.20
2023-01-30T11:23:07.460Z,50.90
2023-01-30T11:26:10.504Z,52.22
2023-01-30T11:28:43.785Z,51.95
2023-01-30T11:31:40.991Z,52.14
2023-01-30T11:34:21.088Z,51.74
2023-01-30T11:36:49.529Z,51.59
2023-01-30T11:39:17.591Z,52.92
2023-01-30T11:41:54.177Z,54.43
2023-01-30T11:44:28.390Z,54.23
2023-01-30T11:47:00.932Z,54.50
2023-01-30T11:49:46.847Z,54.90
2023-01-30T11:52:22.515Z,54.93
2023-01-30T11:54:50.036Z,55.24
2023-01-30T11:57:19.650Z,58.05
2023-01-30T11:59:55.556Z,56.53
2023-01-30T12:02:38.030Z,57.79
2023-01-30T12:05:16.587Z,56.52
2023-01-30T12:07:48.302Z,57.08
2023-01-30T12:10:24.233Z,57.58
2023-01-30T12:13:00.023Z,56.75
2023-01-30T12:15:31.767Z,58.21
2023-01-30T12:18:04.110Z,58.40
2023-01-30T12:21:02.249Z,58.02
2023-01-30T12:23:42.383Z,58.15
2023-01-30T12:26:30.956Z,58.65
2023-01-30T12:29:22.735Z,58.55
2023-01-30T12:32:15.171Z,59.08
2023-01-30T12:34:45.544Z,58.59
2023-01-30T12:37:38.392Z,57.67
2023-01-30T12:40:24.416Z,58.42
2023-01-30T12:43:28.355Z,58.44
2023-01-30T12:46:15.109Z,58.78
2023-01-30T12:49:13.983Z,59.07
2023-01-30T12:52:07.545Z,58.93
2023-01-30T12:54:43.686Z,59.11
2023-01-30T12:57:40.736Z,59.20
2023-01-30T13:00:28.900Z,59.22
2023-01-30T13:03:43.514Z,58.36
2023-01-30T13:06:48.109Z,57.83
2023-01-30T13:09:44.472Z,57.91
2023-01-30T13:12:32.220Z,59.23
2023-01-30T13:15:22.981Z,60.15
2023-01-30T13:18:31.181Z,60.05
2023-01-30T13:21:20.363Z,59.54
2023-01-30T13:24:14.701Z,61.54
2023-01-30T13:26:43.139Z,60.84
2023-01-30T13:29:39.154Z,60.90
2023-01-30T13:32:19.475Z,60.78
2023-01-30T13:34:48.574Z,60.75
2023-01-30T13:37:19.045Z,61.58
2023-01-30T13:39:59.858Z,62.03
2023-01-30T13:42:47.000Z,61.14
2023-01-30T13:45:28.972Z,60.93
2023-01-30T13:48:19.939Z,60.60
2023-01-30T13:50:59.225Z,61.13
2023-01-30T13:53:40.475Z,61.78
2023-01-30T13:56:39.716Z,61.40
2023-01-30T13:59:30.596Z,61.06
2023-01-30T14:02:03.161Z,61.20
2023-01-30T14:04:42.126Z,61.36
2023-01-30T14:07:14.667Z,61.74
2023-01-30T14:10:03.273Z,61.99
2023-01-30T14:12:41.934Z,62.05
2023-01-30T14:15:21.185Z,61.46
2023-01-30T14:18:20.279Z,63.12
2023-01-30T14:20:49.795Z,62.54
2023-01-30T14:23:22.557Z,62.85
2023-01-30T14:25:53.115Z,63.39
2023-01-30T14:28:19.863Z,64.88
2023-01-30T14:30:54.811Z,64.56
2023-01-30T14:33:21.542Z,64.56
2023-01-30T14:35:58.594Z,64.85
2023-01-30T14:38:27.928Z,64.40
2023-01-30T14:41:00.879Z,64.44
2023-01-30T14:43:42.949Z,66.22
2023-01-30T14:46:18.600Z,66.11
2023-01-30T14:48:50.935Z,66.14
2023-01-30T14:51:43.438Z,66.61
2023-01-30T14:54:13.820Z,67.16
2023-01-30T14:56:59.768Z,67.46
2023-01-30T14:59:36.967Z,67.55
2023-01-30T15:02:12.531Z,67.29
2023-01-30T15:05:25.480Z,67.68
2023-01-30T15:08:11.819Z,68.34
2023-01-30T15:10:48.046Z,68.23
2023-01-30T15:13:35.633Z,68.83
2023-01-30T15:16:28.308Z,69.37
2023-01-30T15:19:19.538Z,69.62
2023-01-30T15:22:29.494Z,69.26
2023-01-30T15:25:11.175Z,70.48
2023-01-30T15:28:03.748Z,70.86
2023-01-30T15:30:57.208Z,71.44
2023-01-30T15:33:31.375Z,72.14
2023-01-30T15:36:00.255Z,72.55
2023-01-30T15:38:35.033Z,71.91
2023-01-30T15:41:04.975Z,72.09
2023-01-30T15:44:02.603Z,72.67
2023-01-30T15:46:56.858Z,72.97
2023-01-30T15:50:07.323Z,72.53
2023-01-30T15:52:44.275Z,72.39
2023-01-30T15:55:37.018Z,72.75
2023-01-30T15:58:10.196Z,72.97
2023-01-30T16:00:41.536Z,72.58
2023-01-30T16:03:14.717Z,72.65
2023-01-30T16:05:51.716Z,72.00
2023-01-30T16:08:24.118Z,72.36
2023-01-30T16:10:52.017Z,73.18
2023-01-30T16:13:21.088Z,73.80
2023-01-30T16:16:18.290Z,73.45
2023-01-30T16:18:51.666Z,73.25
2023-01-30T16:21:24.512Z,73.99
2023-01-30T16:24:03.058Z,72.83
2023-01-30T16:26:32.483Z,73.05
2023-01-30T16:29:18.361Z,73.83
2023-01-30T16:31:48.122Z,73.04
2023-01-30T16:34:37.556Z,72.07
2023-01-30T16:37:30.892Z,72.37
2023-01-30T16:40:21.606Z,72.89
2023-01-30T16:43:02.023Z,73.06
2023-01-30T16:45:34.592Z,72.02
2023-01-30T16:48:16.828Z,71.59
2023-01-30T16:50:45.775Z,71.33
2023-01-30T16:53:18.786Z,71.36
2023-01-30T16:56:09.835Z,72.02
2023-01-30T16:58:38.694Z,71.53
2023-01-30T17:01:08.420Z,71.35
2023-01-30T17:03:39.995Z,71.07
2023-01-30T17:06:21.526Z,70.95
2023-01-30T17:08:55.143Z,71.54
2023-01-30T17:11:40.998Z,71.69
2023-01-30T17:14:19.701Z,71.12
2023-01-30T17:17:08.033Z,70.35
2023-01-30T17:19:36.210Z,69.88
2023-01-30T17:22:07.442Z,69.84
2023-01-30T17:24:36.221Z,69.73
2023-01-30T17:27:04.561Z,70.52
2023-01-30T17:29:49.151Z,70.63
2023-01-30T17:32:16.550Z,70.02
2023-01-30T17:34:43.589Z,69.47
2023-01-30T17:37:23.379Z,70.81
2023-01-30T17:39:50.235Z,70.38
2023-01-30T17:42:18.577Z,69.49
2023-01-30T17:44:45.448Z,69.28
2023-01-30T17:47:12.897Z,68.54
2023-01-30T17:49:40.377Z,68.95
2023-01-30T17:52:07.771Z,68.73
2023-01-30T17:54:34.647Z,69.54
2023-01-30T17:57:05.175Z,70.45
2023-01-30T17:59:32.552Z,70.12
2023-01-30T18:02:00.028Z,70.02
2023-01-30T18:04:26.891Z,69.83
2023-01-30T18:06:59.268Z,70.41
2023-01-30T18:09:26.891Z,70.79
2023-01-30T18:11:53.862Z,70.03
2023-01-30T18:14:22.766Z,70.21
2023-01-30T18:16:49.914Z,70.77
2023-01-30T18:19:18.538Z,71.02
2023-01-30T18:21:45.601Z,70.62
2023-01-30T18:24:13.938Z,70.34
2023-01-30T18:26:41.939Z,70.61
2023-01-30T18:29:12.545Z,70.12
2023-01-30T18:31:40.770Z,70.54
2023-01-30T18:34:10.288Z,70.16
2023-01-30T18:36:38.425Z,70.12
2023-01-30T18:39:06.240Z,69.60
2023-01-30T18:41:35.232Z,70.11
2023-01-30T18:44:05.735Z,69.61
2023-01-30T18:46:33.929Z,69.81
2023-01-30T18:49:00.911Z,69.95
2023-01-30T18:51:34.071Z,69.81
2023-01-30T18:54:01.903Z,70.47
2023-01-30T18:56:35.215Z,71.11
2023-01-30T18:59:04.440Z,69.70
2023-01-30T19:01:42.536Z,70.41
2023-01-30T19:04:12.659Z,69.73
2023-01-30T19:06:42.891Z,69.45
2023-01-30T19:09:15.112Z,69.35
2023-01-30T19:12:00.308Z,69.14
2023-01-30T19:14:27.151Z,69.69
2023-01-30T19:16:54.547Z,69.29
2023-01-30T19:19:22.005Z,70.57
2023-01-30T19:21:50.546Z,69.03
2023-01-30T19:24:17.719Z,69.18
2023-01-30T19:26:45.568Z,69.36
2023-01-30T19:29:12.465Z,69.80
2023-01-30T19:31:39.851Z,71.41
2023-01-30T19:34:07.542Z,71.68
2023-01-30T19:36:36.181Z,70.69
2023-01-30T19:39:06.202Z,70.71
2023-01-30T19:41:37.209Z,71.21
2023-01-30T19:44:07.286Z,70.46
2023-01-30T19:46:35.004Z,69.89
2023-01-30T19:49:03.405Z,70.21
2023-01-30T19:51:34.104Z,69.67
2023-01-30T19:54:06.176Z,69.67
2023-01-30T19:56:34.314Z,69.86
2023-01-30T19:59:02.427Z,68.93
2023-01-30T20:01:32.926Z,69.21
2023-01-30T20:04:02.501Z,68.95
2023-01-30T20:06:32.326Z,69.34
2023-01-30T20:09:05.549Z,69.81
2023-01-30T20:11:35.847Z,69.34
2023-01-30T20:14:04.808Z,69.50
2023-01-30T20:16:31.951Z,69.00
2023-01-30T20:19:05.970Z,69.32
2023-01-30T20:21:33.519Z,68.66
2023-01-30T20:24:01.084Z,68.50
2023-01-30T20:26:31.629Z,68.31
2023-01-30T20:28:58.833Z,68.49
2023-01-30T20:31:28.671Z,68.20
2023-01-30T20:33:57.712Z,68.65
2023-01-30T20:36:27.167Z,68.20
2023-01-30T20:38:55.969Z,68.29
2023-01-30T20:41:26.203Z,68.36
2023-01-30T20:43:57.445Z,67.78
2023-01-30T20:46:28.787Z,67.34
2023-01-30T20:48:58.509Z,67.77
2023-01-30T20:51:28.868Z,67.75
2023-01-30T20:54:06.873Z,66.99
2023-01-30T20:56:46.412Z,67.34
2023-01-30T20:59:17.428Z,67.42
2023-01-30T21:01:44.947Z,66.84
2023-01-30T21:04:16.228Z,67.00
2023-01-30T21:06:46.174Z,67.03
2023-01-30T21:09:18.618Z,68.18
2023-01-30T21:11:46.200Z,67.83
2023-01-30T21:14:13.284Z,67.92
2023-01-30T21:16:40.629Z,68.29
2023-01-30T21:19:13.883Z,67.90
2023-01-30T21:21:50.069Z,67.12
2023-01-30T21:24:20.274Z,66.79
2023-01-30T21:26:48.136Z,67.33
2023-01-30T21:29:19.275Z,66.61
2023-01-30T21:31:46.705Z,67.11
2023-01-30T21:34:14.335Z,67.59
2023-01-30T21:36:41.488Z,67.61
2023-01-30T21:39:32.186Z,67.13
2023-01-30T21:42:19.699Z,67.06
2023-01-30T21:44:47.469Z,67.74
2023-01-30T21:47:14.532Z,67.11
2023-01-30T21:49:43.904Z,68.06
2023-01-30T21:52:11.742Z,68.24
2023-01-30T21:54:39.100Z,67.93
2023-01-30T21:57:16.284Z,67.69
2023-01-30T21:59:44.286Z,67.85
2023-01-30T22:02:11.248Z,68.07
2023-01-30T22:04:38.054Z,68.11
2023-01-30T22:07:06.833Z,68.21
2023-01-30T22:09:33.866Z,68.08
2023-01-30T22:12:00.669Z,67.63
2023-01-30T22:14:27.506Z,67.78
2023-01-30T22:16:54.659Z,67.53
2023-01-30T22:19:21.619Z,67.64
2023-01-30T22:21:48.438Z,67.48
2023-01-30T22:24:15.324Z,68.23
2023-01-30T22:26:42.169Z,67.62
2023-01-30T22:29:09.400Z,68.55
2023-01-30T22:31:40.308Z,68.45
2023-01-30T22:34:07.189Z,67.75
2023-01-30T22:36:35.200Z,67.99
2023-01-30T22:39:02.605Z,67.79
2023-01-30T22:41:34.759Z,67.78
2023-01-30T22:44:04.757Z,67.13
2023-01-30T22:46:36.143Z,67.80
2023-01-30T22:49:05.709Z,69.06
2023-01-30T22:51:39.779Z,68.00
2023-01-30T22:54:10.777Z,67.82
2023-01-30T22:56:46.799Z,67.72
2023-01-30T22:59:14.549Z,67.02
2023-01-30T23:01:46.835Z,67.43
2023-01-30T23:04:16.759Z,68.11
2023-01-30T23:06:44.455Z,67.21
2023-01-30T23:09:16.656Z,67.92
2023-01-30T23:12:12.014Z,67.26
2023-01-30T23:14:39.458Z,67.58
2023-01-30T23:17:26.248Z,66.97
2023-01-30T23:19:54.350Z,67.87
2023-01-30T23:22:21.477Z,67.85
2023-01-30T23:24:48.745Z,68.14
2023-01-30T23:27:15.822Z,68.07
2023-01-30T23:29:42.951Z,67.77
2023-01-30T23:32:09.883Z,67.29
2023-01-30T23:34:36.814Z,67.12
2023-01-30T23:37:03.633Z,67.90
2023-01-30T23:39:30.445Z,67.84
2023-01-30T23:41:57.232Z,67.55
2023-01-30T23:44:24.205Z,67.16
2023-01-30T23:46:51.064Z,66.95
2023-01-30T23:49:17.972Z,67.21
2023-01-30T23:51:45.918Z,67.27
2023-01-30T23:54:14.117Z,67.41
2023-01-30T23:56:43.827Z,67.31
2023-01-30T23:59:12.075Z,66.79
